Time;durP1;ratioP1;P1;durP2;ratioP2;P2;SDS_P1;SDS_P2;PMS_P1;PMS_P2;Temp;Humidity;BMP_temperature;BMP_pressure;BME280_temperature;BME280_humidity;BME280_pressure;Samples;Min_cycle;Max_cycle;Signal;HPM_P1;HPM_P2
2021/03/21 00:00:43;;;;;;;24.23;22.92;;;4.10;52.00;;;;;;5093957;28;20215;-79
2021/03/21 00:03:10;;;;;;;25.70;24.10;;;4.20;51.00;;;;;;5093897;28;20249;-78
2021/03/21 00:05:37;;;;;;;25.05;23.33;;;4.10;51.20;;;;;;5093626;28;20289;-78
2021/03/21 00:08:06;;;;;;;26.35;24.60;;;4.10;52.80;;;;;;5094156;28;20224;-78
2021/03/21 00:10:36;;;;;;;25.50;23.85;;;4.10;51.40;;;;;;5093480;28;20223;-75
2021/03/21 00:13:03;;;;;;;26.90;25.17;;;4.10;51.10;;;;;;5093822;28;20260;-78
2021/03/21 00:15:31;;;;;;;25.80;24.20;;;4.00;52.30;;;;;;5093586;28;20191;-78
2021/03/21 00:17:58;;;;;;;24.90;23.10;;;4.00;50.80;;;;;;5094061;28;20277;-78
2021/03/21 00:20:30;;;;;;;23.77;22.48;;;4.10;50.60;;;;;;5093332;28;20271;-78
2021/03/21 00:22:56;;;;;;;24.90;23.38;;;4.10;50.30;;;;;;5093458;28;20195;-78
2021/03/21 00:25:25;;;;;;;24.75;23.35;;;4.10;50.40;;;;;;5093395;28;20715;-76
2021/03/21 00:27:52;;;;;;;24.27;22.88;;;4.00;50.70;;;;;;5093246;28;20249;-76
2021/03/21 00:30:22;;;;;;;23.70;22.40;;;4.10;50.50;;;;;;5093083;28;20215;-76
2021/03/21 00:32:49;;;;;;;23.48;22.17;;;4.00;52.60;;;;;;5093569;28;20198;-76
2021/03/21 00:35:15;;;;;;;24.65;23.15;;;3.90;53.10;;;;;;5093179;28;20203;-76
2021/03/21 00:37:42;;;;;;;24.98;23.50;;;3.90;51.80;;;;;;5092887;28;20199;-78
2021/03/21 00:40:12;;;;;;;27.42;25.55;;;3.90;54.40;;;;;;5093102;28;20214;-76
2021/03/21 00:42:38;;;;;;;28.15;26.15;;;3.90;61.20;;;;;;5093081;28;20680;-76
2021/03/21 00:45:07;;;;;;;25.00;23.50;;;3.90;56.80;;;;;;5093018;28;20203;-76
2021/03/21 00:47:34;;;;;;;24.73;23.20;;;3.90;59.00;;;;;;5092967;28;20208;-76
2021/03/21 00:50:01;;;;;;;24.63;22.95;;;4.00;53.40;;;;;;5092922;28;20223;-76
2021/03/21 00:52:28;;;;;;;24.42;22.90;;;3.90;52.10;;;;;;5092849;28;20195;-76
2021/03/21 00:54:54;;;;;;;24.35;22.85;;;4.00;52.00;;;;;;5093078;28;20204;-76
2021/03/21 00:57:20;;;;;;;24.58;23.00;;;4.00;51.40;;;;;;5092681;28;20199;-76
2021/03/21 00:59:47;;;;;;;24.55;23.15;;;4.10;54.40;;;;;;5092435;28;20294;-76
2021/03/21 01:02:13;;;;;;;24.58;23.17;;;4.00;53.20;;;;;;5092906;28;20222;-76
2021/03/21 01:04:40;;;;;;;24.60;23.20;;;4.10;52.40;;;;;;5092864;28;20203;-76
2021/03/21 01:07:07;;;;;;;24.80;23.08;;;4.00;56.30;;;;;;5092585;28;20245;-76
2021/03/21 01:09:33;;;;;;;25.00;23.10;;;4.10;52.40;;;;;;5092081;28;20322;-76
2021/03/21 01:12:00;;;;;;;23.75;22.45;;;4.10;51.40;;;;;;5092643;28;20259;-76
2021/03/21 01:14:26;;;;;;;23.98;22.48;;;4.00;51.30;;;;;;5092866;28;20290;-76
2021/03/21 01:16:52;;;;;;;25.65;23.55;;;4.10;50.90;;;;;;5092272;28;20510;-76
2021/03/21 01:19:21;;;;;;;25.10;23.60;;;4.10;51.00;;;;;;5092515;28;20700;-76
2021/03/21 01:21:49;;;;;;;25.30;23.70;;;4.00;51.30;;;;;;5092588;28;20207;-76
2021/03/21 01:24:18;;;;;;;24.30;22.90;;;4.00;53.50;;;;;;5092527;28;20249;-76
2021/03/21 01:26:45;;;;;;;24.45;23.05;;;4.00;52.90;;;;;;5092377;28;20565;-76
2021/03/21 01:29:11;;;;;;;25.30;23.63;;;4.10;51.90;;;;;;5092530;28;20225;-78
2021/03/21 01:31:38;;;;;;;24.27;22.67;;;4.00;52.50;;;;;;5092262;28;20300;-76
2021/03/21 01:34:04;;;;;;;24.15;22.75;;;4.10;52.40;;;;;;5092471;28;20192;-76
2021/03/21 01:36:33;;;;;;;24.60;23.10;;;4.10;51.80;;;;;;5092713;28;20259;-78
2021/03/21 01:39:04;;;;;;;25.15;23.65;;;4.10;51.30;;;;;;5092504;28;20226;-76
2021/03/21 01:41:32;;;;;;;25.15;23.42;;;4.10;51.10;;;;;;5092594;28;20209;-76
2021/03/21 01:43:59;;;;;;;24.67;23.27;;;4.00;51.50;;;;;;5092211;28;20263;-76
2021/03/21 01:46:42;;;;;;;24.80;23.05;;;4.10;51.40;;;;;;5092165;28;20199;-78
2021/03/21 01:49:14;;;;;;;24.48;23.08;;;4.10;52.10;;;;;;5092507;28;20275;-77
2021/03/21 01:51:42;;;;;;;24.30;22.90;;;4.10;51.70;;;;;;5092373;28;20219;-78
2021/03/21 01:54:12;;;;;;;25.15;23.65;;;4.20;51.70;;;;;;5092003;28;20204;-76
2021/03/21 01:56:40;;;;;;;24.95;23.55;;;4.10;51.40;;;;;;5092283;28;20195;-76
2021/03/21 01:59:10;;;;;;;24.13;22.75;;;4.10;55.90;;;;;;5091893;28;20276;-76
2021/03/21 02:01:36;;;;;;;23.80;22.40;;;4.10;53.40;;;;;;5092269;28;20221;-76
2021/03/21 02:04:03;;;;;;;24.02;22.52;;;4.10;53.40;;;;;;5092177;28;20206;-76
2021/03/21 02:06:59;;;;;;;24.30;22.90;;;4.00;53.70;;;;;;5092145;28;20192;-76
2021/03/21 02:09:31;;;;;;;25.00;23.35;;;4.10;52.60;;;;;;5092002;28;20216;-75
2021/03/21 02:12:11;;;;;;;24.77;23.42;;;4.00;52.30;;;;;;5092206;28;20203;-76
2021/03/21 02:14:45;;;;;;;24.67;23.20;;;4.00;52.30;;;;;;5092226;28;20220;-76
2021/03/21 02:17:19;;;;;;;25.60;24.05;;;4.00;52.40;;;;;;5091993;28;20726;-75
2021/03/21 02:20:21;;;;;;;24.38;22.98;;;4.00;53.20;;;;;;5091919;28;20625;-78
2021/03/21 02:22:52;;;;;;;24.42;22.90;;;4.10;52.40;;;;;;5095374;28;20570;-76
2021/03/21 02:25:50;;;;;;;25.75;23.90;;;4.10;52.20;;;;;;5095650;28;20238;-76
2021/03/21 02:28:33;;;;;;;24.25;22.92;;;4.10;52.40;;;;;;5090388;28;20230;-76
2021/03/21 02:31:04;;;;;;;25.80;23.83;;;4.10;52.50;;;;;;5095536;28;20217;-78
2021/03/21 02:33:36;;;;;;;25.25;23.77;;;4.00;51.90;;;;;;5095642;28;20206;-76
2021/03/21 02:36:14;;;;;;;24.70;23.25;;;4.00;52.20;;;;;;5095346;28;20728;-76
2021/03/21 02:38:47;;;;;;;25.02;23.40;;;4.00;51.70;;;;;;5096175;28;20305;-76
2021/03/21 02:41:18;;;;;;;24.63;23.23;;;4.00;51.70;;;;;;5095463;28;20665;-76
2021/03/21 02:43:49;;;;;;;23.60;22.30;;;4.00;54.00;;;;;;5095427;28;20206;-76
2021/03/21 02:46:21;;;;;;;24.67;23.08;;;4.10;52.10;;;;;;5095251;28;20210;-76
2021/03/21 02:48:52;;;;;;;24.65;23.25;;;4.10;53.30;;;;;;5095134;28;20300;-76
2021/03/21 02:51:23;;;;;;;24.25;22.75;;;4.00;52.60;;;;;;5095151;28;20215;-78
2021/03/21 02:53:53;;;;;;;24.48;23.17;;;4.00;53.90;;;;;;5094990;28;20198;-76
2021/03/21 02:56:23;;;;;;;24.48;23.10;;;4.00;52.60;;;;;;5094984;28;20199;-76
2021/03/21 02:58:55;;;;;;;25.38;23.67;;;4.10;51.20;;;;;;5094760;28;20298;-76
2021/03/21 03:01:26;;;;;;;24.35;22.65;;;4.10;51.20;;;;;;5094945;28;20265;-76
2021/03/21 03:03:57;;;;;;;24.20;22.55;;;4.10;51.20;;;;;;5094994;28;20730;-75
2021/03/21 03:06:28;;;;;;;23.92;22.63;;;4.10;52.00;;;;;;5094795;28;20198;-76
2021/03/21 03:08:59;;;;;;;25.05;23.52;;;4.10;51.60;;;;;;5094756;28;20302;-76
2021/03/21 03:11:35;;;;;;;24.42;23.02;;;4.00;55.40;;;;;;5094639;28;20688;-76
2021/03/21 03:14:05;;;;;;;24.52;23.08;;;4.00;56.70;;;;;;5094800;28;20282;-76
2021/03/21 03:16:42;;;;;;;24.25;22.80;;;4.00;52.70;;;;;;5094426;28;20625;-76
2021/03/21 03:19:16;;;;;;;24.70;23.20;;;4.00;53.30;;;;;;5094779;28;20587;-76
2021/03/21 03:21:48;;;;;;;23.90;22.50;;;4.00;52.60;;;;;;5094613;28;20252;-76
2021/03/21 03:24:24;;;;;;;23.73;22.25;;;4.10;53.10;;;;;;5094543;28;20199;-76
2021/03/21 03:26:54;;;;;;;24.13;22.65;;;4.00;57.10;;;;;;5094353;28;20678;-76
2021/03/21 03:29:25;;;;;;;24.52;22.77;;;4.00;56.60;;;;;;5094518;28;20254;-76
2021/03/21 03:31:56;;;;;;;23.63;22.23;;;4.00;53.80;;;;;;5093891;28;20219;-76
2021/03/21 03:34:23;;;;;;;23.90;22.60;;;4.00;53.00;;;;;;5094495;28;20200;-75
2021/03/21 03:36:50;;;;;;;24.60;23.10;;;4.10;52.50;;;;;;5094255;28;20256;-77
2021/03/21 03:39:17;;;;;;;25.10;23.50;;;4.10;52.20;;;;;;5094223;28;20280;-76
2021/03/21 03:41:45;;;;;;;24.45;23.15;;;4.10;52.80;;;;;;5094361;28;20202;-76
2021/03/21 03:44:26;;;;;;;23.38;22.17;;;4.10;56.60;;;;;;5094411;28;20537;-76
2021/03/21 03:47:03;;;;;;;24.95;23.35;;;4.00;54.20;;;;;;5093984;28;20252;-76
2021/03/21 03:49:41;;;;;;;25.90;24.17;;;4.10;53.40;;;;;;5094138;28;20219;-76
2021/03/21 03:52:23;;;;;;;23.25;21.85;;;4.10;54.10;;;;;;5094118;28;20187;-76
2021/03/21 03:54:58;;;;;;;23.88;22.35;;;4.10;53.00;;;;;;5094056;28;20199;-76
2021/03/21 03:57:29;;;;;;;24.15;22.75;;;4.10;53.10;;;;;;5093611;28;20199;-77
2021/03/21 04:00:04;;;;;;;24.42;22.83;;;4.10;53.00;;;;;;5093786;28;20216;-76
2021/03/21 04:02:44;;;;;;;24.25;22.85;;;4.00;53.60;;;;;;5094014;28;20191;-76
2021/03/21 04:05:18;;;;;;;24.63;23.23;;;4.00;54.80;;;;;;5093805;28;20203;-76
2021/03/21 04:07:50;;;;;;;24.17;22.77;;;4.00;56.70;;;;;;5093536;28;20251;-76
2021/03/21 04:10:20;;;;;;;25.75;24.15;;;3.90;61.10;;;;;;5093394;28;20684;-76
2021/03/21 04:13:00;;;;;;;24.63;23.13;;;3.90;61.90;;;;;;5093830;28;20333;-76
2021/03/21 04:15:32;;;;;;;24.58;23.10;;;3.80;58.80;;;;;;5093742;28;20199;-76
2021/03/21 04:18:10;;;;;;;24.98;23.48;;;3.90;57.00;;;;;;5093522;28;20213;-76
2021/03/21 04:20:39;;;;;;;25.20;23.27;;;3.90;55.50;;;;;;5093383;28;20212;-76
2021/03/21 04:23:11;;;;;;;24.23;22.77;;;3.90;54.80;;;;;;5093426;28;20199;-76
2021/03/21 04:25:44;;;;;;;24.80;23.10;;;4.00;54.90;;;;;;5093254;28;20248;-76
2021/03/21 04:28:15;;;;;;;24.55;22.98;;;4.00;64.10;;;;;;5093458;28;20201;-76
2021/03/21 04:30:47;;;;;;;27.45;25.42;;;3.80;66.70;;;;;;5093067;28;20222;-76
2021/03/21 04:33:19;;;;;;;24.42;22.92;;;3.80;71.20;;;;;;5093211;28;20216;-76
2021/03/21 04:35:49;;;;;;;28.83;25.08;;;3.80;69.20;;;;;;5093182;28;20195;-75
2021/03/21 04:38:20;;;;;;;24.95;23.35;;;3.80;76.90;;;;;;5093303;28;20203;-76
2021/03/21 04:40:48;;;;;;;24.52;23.13;;;3.80;69.60;;;;;;5093174;28;20221;-76
2021/03/21 04:43:18;;;;;;;24.42;23.02;;;3.80;63.40;;;;;;5092679;28;20209;-76
2021/03/21 04:45:49;;;;;;;24.20;22.90;;;3.90;59.70;;;;;;5092713;28;20195;-75
2021/03/21 04:48:19;;;;;;;24.55;23.15;;;3.90;65.60;;;;;;5093186;28;20534;-76
2021/03/21 04:50:47;;;;;;;23.70;22.40;;;3.80;59.90;;;;;;5092968;28;20576;-76
2021/03/21 04:53:20;;;;;;;24.55;23.05;;;3.80;58.20;;;;;;5092778;28;20203;-76
2021/03/21 04:55:53;;;;;;;24.02;22.63;;;3.80;57.80;;;;;;5092823;28;20281;-75
2021/03/21 04:58:32;;;;;;;25.00;23.48;;;3.80;57.10;;;;;;5092767;28;20191;-77
2021/03/21 05:01:05;;;;;;;23.80;22.50;;;3.80;56.60;;;;;;5092978;28;20187;-77
2021/03/21 05:03:37;;;;;;;24.38;22.88;;;3.80;57.10;;;;;;5092924;28;20199;-76
2021/03/21 05:06:07;;;;;;;24.30;23.00;;;3.80;56.60;;;;;;5092719;28;20260;-76
2021/03/21 05:08:39;;;;;;;24.92;23.42;;;3.80;56.90;;;;;;5092853;28;20195;-75
2021/03/21 05:11:08;;;;;;;26.08;24.55;;;3.80;60.80;;;;;;5092655;28;20579;-76
2021/03/21 05:13:40;;;;;;;24.55;22.85;;;3.90;57.80;;;;;;5093085;28;20638;-76
2021/03/21 05:16:13;;;;;;;24.67;23.10;;;3.90;57.40;;;;;;5092901;28;20203;-76
2021/03/21 05:18:48;;;;;;;24.30;22.92;;;3.90;57.50;;;;;;5092821;28;20196;-76
2021/03/21 05:21:19;;;;;;;25.23;23.83;;;3.90;57.10;;;;;;5092623;28;20298;-76
2021/03/21 05:23:56;;;;;;;24.80;23.30;;;3.90;57.60;;;;;;5092721;28;20282;-76
2021/03/21 05:26:28;;;;;;;25.02;23.35;;;3.90;57.80;;;;;;5092600;28;20253;-75
2021/03/21 05:29:04;;;;;;;26.17;24.67;;;3.90;66.90;;;;;;5092658;28;21073;-76
2021/03/21 05:31:31;;;;;;;25.40;23.80;;;3.90;59.40;;;;;;5092581;28;20219;-76
2021/03/21 05:34:00;;;;;;;25.02;23.52;;;3.90;58.50;;;;;;5092604;28;20282;-76
2021/03/21 05:36:57;;;;;;;24.52;23.02;;;3.80;58.70;;;;;;5092377;28;20199;-76
2021/03/21 05:39:33;;;;;;;25.02;23.63;;;3.80;58.50;;;;;;5092355;28;20389;-75
2021/03/21 05:42:38;;;;;;;24.80;23.30;;;3.80;58.70;;;;;;5092425;28;20320;-75
2021/03/21 05:45:41;;;;;;;24.25;22.75;;;3.80;59.00;;;;;;5061209;28;20207;-76
2021/03/21 05:48:30;;;;;;;24.65;23.25;;;3.80;59.00;;;;;;5092379;28;20191;-76
2021/03/21 05:51:37;;;;;;;24.33;22.92;;;3.90;60.40;;;;;;5092310;28;20211;-76
2021/03/21 05:54:41;;;;;;;25.05;23.50;;;4.00;58.60;;;;;;5092225;28;20311;-76
2021/03/21 05:57:34;;;;;;;25.65;23.80;;;3.90;58.30;;;;;;5096105;28;20194;-76
2021/03/21 06:00:28;;;;;;;27.55;25.85;;;3.90;70.80;;;;;;5096117;28;20219;-76
2021/03/21 06:03:19;;;;;;;25.40;23.75;;;4.00;64.30;;;;;;5090104;28;20253;-76
2021/03/21 06:06:30;;;;;;;26.70;25.10;;;3.90;74.70;;;;;;5096042;28;20252;-75
2021/03/21 06:09:07;;;;;;;26.38;24.77;;;3.90;77.00;;;;;;5096088;28;20226;-76
2021/03/21 06:11:48;;;;;;;25.17;23.67;;;3.90;68.90;;;;;;5096067;28;20261;-76
2021/03/21 06:15:07;;;;;;;24.92;23.42;;;3.90;63.70;;;;;;5096056;28;20617;-76
2021/03/21 06:17:54;;;;;;;25.33;23.75;;;3.90;61.50;;;;;;5033369;28;20258;-76
2021/03/21 06:20:44;;;;;;;25.27;23.80;;;4.00;62.40;;;;;;5089947;28;20250;-76
2021/03/21 06:23:36;;;;;;;24.98;23.42;;;4.10;64.40;;;;;;5095904;28;20199;-76
2021/03/21 06:26:14;;;;;;;27.10;25.33;;;4.10;60.10;;;;;;5095609;28;20206;-76
2021/03/21 06:29:16;;;;;;;25.27;23.77;;;4.10;58.60;;;;;;5095669;28;20563;-76
2021/03/21 06:32:06;;;;;;;24.83;23.25;;;4.20;58.20;;;;;;5095418;28;20228;-76
2021/03/21 06:34:40;;;;;;;26.13;24.63;;;4.20;58.80;;;;;;5095663;28;20217;-76
2021/03/21 06:37:23;;;;;;;26.85;25.15;;;4.20;58.80;;;;;;5095414;28;20199;-76
2021/03/21 06:40:15;;;;;;;26.15;24.65;;;4.20;58.70;;;;;;5095615;28;20692;-76
2021/03/21 06:43:04;;;;;;;27.42;25.63;;;4.30;58.90;;;;;;5095466;28;20576;-76
2021/03/21 06:46:03;;;;;;;27.65;25.95;;;4.20;65.30;;;;;;5092644;28;20748;-76
2021/03/21 06:48:56;;;;;;;27.42;25.83;;;4.20;72.70;;;;;;5095271;28;20199;-76
2021/03/21 06:51:31;;;;;;;25.52;24.00;;;4.30;72.60;;;;;;5095202;28;20223;-76
2021/03/21 06:54:15;;;;;;;24.00;22.70;;;4.40;62.80;;;;;;5094893;28;20722;-76
2021/03/21 06:57:04;;;;;;;25.70;24.10;;;4.50;60.20;;;;;;5094847;28;20195;-76
2021/03/21 07:00:06;;;;;;;24.10;22.70;;;4.50;59.60;;;;;;5095035;28;20221;-76
2021/03/21 07:03:11;;;;;;;25.23;23.73;;;4.60;58.90;;;;;;5089717;28;20289;-76
2021/03/21 07:06:07;;;;;;;27.08;25.30;;;4.60;58.30;;;;;;5037662;28;20287;-76
2021/03/21 07:09:04;;;;;;;26.40;24.75;;;4.60;58.40;;;;;;5094211;28;20199;-76
2021/03/21 07:12:19;;;;;;;25.35;23.77;;;4.60;67.50;;;;;;5094751;28;20215;-75
2021/03/21 07:15:40;;;;;;;24.88;23.10;;;4.70;63.20;;;;;;5094756;28;20560;-76
2021/03/21 07:18:48;;;;;;;25.08;23.52;;;4.70;65.30;;;;;;5070384;28;20199;-76
2021/03/21 07:21:48;;;;;;;25.42;23.83;;;4.60;65.80;;;;;;5087583;28;20192;-76
2021/03/21 07:24:45;;;;;;;26.83;24.92;;;4.80;59.80;;;;;;5094666;28;20206;-76
2021/03/21 07:27:51;;;;;;;26.65;25.05;;;4.90;58.30;;;;;;5094406;28;20202;-76
2021/03/21 07:30:22;;;;;;;26.30;24.77;;;4.80;60.10;;;;;;5078693;28;20575;-76
2021/03/21 07:33:21;;;;;;;24.15;22.85;;;4.80;58.50;;;;;;5094455;28;20286;-76
2021/03/21 07:36:18;;;;;;;25.17;23.65;;;4.90;58.40;;;;;;5094167;28;20714;-76
2021/03/21 07:39:19;;;;;;;24.83;23.42;;;5.00;58.10;;;;;;5088526;28;20276;-76
2021/03/21 07:42:03;;;;;;;26.13;24.55;;;5.20;58.00;;;;;;5094278;28;20196;-76
2021/03/21 07:44:47;;;;;;;25.40;23.73;;;5.10;57.60;;;;;;5094137;28;20237;-76
2021/03/21 07:47:26;;;;;;;25.25;23.55;;;5.00;63.40;;;;;;5094119;28;20281;-76
2021/03/21 07:50:13;;;;;;;24.73;22.92;;;5.10;60.00;;;;;;5094037;28;20214;-76
2021/03/21 07:53:00;;;;;;;24.02;22.63;;;5.10;58.40;;;;;;5093964;28;20249;-76
2021/03/21 07:55:35;;;;;;;25.02;23.45;;;5.20;57.50;;;;;;5093899;28;20648;-76
2021/03/21 07:58:15;;;;;;;26.23;24.63;;;5.20;56.90;;;;;;5093791;28;20281;-76
2021/03/21 08:00:41;;;;;;;26.60;25.05;;;5.40;57.00;;;;;;5093911;28;20229;-76
2021/03/21 08:03:24;;;;;;;25.23;23.58;;;5.40;58.20;;;;;;5093797;28;20573;-76
2021/03/21 08:05:56;;;;;;;23.95;22.65;;;5.40;57.30;;;;;;5093772;28;20253;-76
2021/03/21 08:08:25;;;;;;;24.63;23.13;;;5.40;62.40;;;;;;5093892;28;20252;-76
2021/03/21 08:10:56;;;;;;;24.77;23.35;;;5.40;56.80;;;;;;5093586;28;20716;-76
2021/03/21 08:13:28;;;;;;;28.35;26.45;;;5.30;59.90;;;;;;5093748;28;20239;-76
2021/03/21 08:15:54;;;;;;;25.58;24.08;;;5.40;57.00;;;;;;5093439;28;20216;-76
2021/03/21 08:18:25;;;;;;;25.38;23.98;;;5.40;56.80;;;;;;5093366;28;20196;-76
2021/03/21 08:20:55;;;;;;;24.75;22.88;;;5.40;56.40;;;;;;5093612;28;20361;-76
2021/03/21 08:23:25;;;;;;;25.08;23.52;;;5.50;56.60;;;;;;5093567;28;20199;-76
2021/03/21 08:25:52;;;;;;;27.48;25.88;;;5.80;57.00;;;;;;5093211;28;20201;-76
2021/03/21 08:28:23;;;;;;;24.48;23.00;;;5.90;59.00;;;;;;5093238;28;20203;-76
2021/03/21 08:30:52;;;;;;;24.70;23.25;;;6.00;61.80;;;;;;5093385;28;20254;-76
2021/03/21 08:33:31;;;;;;;26.55;24.98;;;6.00;60.60;;;;;;5093254;28;20237;-76
2021/03/21 08:36:18;;;;;;;24.33;22.92;;;6.20;57.10;;;;;;5093022;28;20196;-76
2021/03/21 08:39:03;;;;;;;24.67;23.10;;;6.30;58.50;;;;;;5093038;28;20220;-78
2021/03/21 08:41:43;;;;;;;24.15;22.70;;;6.40;55.50;;;;;;5093372;28;20208;-76
2021/03/21 08:44:21;;;;;;;24.40;22.90;;;6.40;55.00;;;;;;5093039;28;20270;-76
2021/03/21 08:46:50;;;;;;;26.92;25.30;;;6.50;54.50;;;;;;5092938;28;20191;-76
2021/03/21 08:49:23;;;;;;;27.15;25.58;;;6.70;53.70;;;;;;5092845;28;20338;-76
2021/03/21 08:51:51;;;;;;;24.60;22.95;;;6.60;53.70;;;;;;5092971;28;20556;-76
2021/03/21 08:54:22;;;;;;;25.27;23.75;;;6.60;53.80;;;;;;5092731;28;20201;-76
2021/03/21 08:57:04;;;;;;;24.20;22.80;;;6.70;53.80;;;;;;5092892;28;20201;-75
2021/03/21 08:59:37;;;;;;;27.70;25.60;;;6.90;54.20;;;;;;5092703;28;20211;-77
2021/03/21 09:02:10;;;;;;;26.00;24.40;;;6.90;53.50;;;;;;5093081;28;20207;-78
2021/03/21 09:04:40;;;;;;;24.00;22.60;;;6.90;53.70;;;;;;5092934;28;20196;-76
2021/03/21 09:07:29;;;;;;;24.90;23.45;;;6.80;53.10;;;;;;5092662;28;20627;-76
2021/03/21 09:10:24;;;;;;;25.55;24.00;;;6.90;52.70;;;;;;5088562;28;20213;-78
2021/03/21 09:12:55;;;;;;;24.83;23.15;;;6.90;52.50;;;;;;5092965;28;20196;-76
2021/03/21 09:15:34;;;;;;;25.27;23.50;;;6.90;52.30;;;;;;5092783;28;20203;-77
2021/03/21 09:18:24;;;;;;;24.42;23.02;;;6.90;52.60;;;;;;5092739;28;20202;-76
2021/03/21 09:20:59;;;;;;;26.02;24.23;;;6.80;55.40;;;;;;5088795;28;20672;-76
2021/03/21 09:23:33;;;;;;;27.52;25.90;;;6.60;53.70;;;;;;5092740;28;20286;-76
2021/03/21 09:26:01;;;;;;;26.45;24.75;;;6.60;53.60;;;;;;5092571;28;20200;-76
2021/03/21 09:28:33;;;;;;;29.25;27.30;;;6.50;53.60;;;;;;5092656;28;20614;-76
2021/03/21 09:31:02;;;;;;;25.73;24.33;;;6.60;53.60;;;;;;5094876;28;20220;-76
2021/03/21 09:33:33;;;;;;;28.48;26.75;;;6.60;54.30;;;;;;5096747;28;20298;-75
2021/03/21 09:36:05;;;;;;;23.98;22.58;;;6.60;53.60;;;;;;5096782;28;20208;-78
2021/03/21 09:38:36;;;;;;;25.02;23.52;;;6.50;54.80;;;;;;5096703;28;20675;-78
2021/03/21 09:41:07;;;;;;;25.75;24.27;;;6.60;53.80;;;;;;5096658;28;20210;-78
2021/03/21 09:43:37;;;;;;;25.33;23.65;;;6.60;55.70;;;;;;5096534;28;20272;-78
2021/03/21 09:46:19;;;;;;;25.83;24.23;;;6.70;54.50;;;;;;5096629;28;20210;-78
2021/03/21 09:48:58;;;;;;;25.98;24.17;;;6.70;58.50;;;;;;5096551;28;20227;-78
2021/03/21 09:51:35;;;;;;;25.55;23.95;;;6.80;55.60;;;;;;5096335;28;20211;-78
2021/03/21 09:54:09;;;;;;;24.75;23.25;;;6.80;54.70;;;;;;5096078;28;20221;-78
2021/03/21 09:56:46;;;;;;;25.80;24.30;;;6.90;55.60;;;;;;5096251;28;20206;-78
2021/03/21 09:59:21;;;;;;;25.30;23.65;;;7.00;58.60;;;;;;5096067;28;20215;-78
2021/03/21 10:01:52;;;;;;;24.90;23.40;;;7.10;59.70;;;;;;5096227;28;20210;-77
2021/03/21 10:04:27;;;;;;;24.63;23.27;;;7.20;54.90;;;;;;5096406;28;20207;-78
2021/03/21 10:06:58;;;;;;;25.73;24.10;;;7.40;54.40;;;;;;5096218;28;20256;-78
2021/03/21 10:09:29;;;;;;;26.92;25.23;;;7.50;53.50;;;;;;5096213;28;20219;-77
2021/03/21 10:12:04;;;;;;;25.63;23.88;;;7.60;53.50;;;;;;5096032;28;20226;-77
2021/03/21 10:14:43;;;;;;;25.13;23.73;;;7.70;53.90;;;;;;5096119;28;20194;-78
2021/03/21 10:17:48;;;;;;;27.98;26.27;;;7.80;55.70;;;;;;5096638;28;20221;-78
2021/03/21 10:20:16;;;;;;;26.83;25.13;;;7.90;54.50;;;;;;5095992;28;20254;-78
2021/03/21 10:22:55;;;;;;;26.63;24.92;;;8.00;55.20;;;;;;5096090;28;20191;-77
2021/03/21 10:25:57;;;;;;;25.20;23.65;;;8.20;53.00;;;;;;5096071;28;20244;-78
2021/03/21 10:28:40;;;;;;;25.38;23.77;;;7.90;53.50;;;;;;5095827;28;20221;-79
2021/03/21 10:31:40;;;;;;;26.38;24.55;;;7.60;57.70;;;;;;5095804;28;20223;-78
2021/03/21 10:34:47;;;;;;;28.80;27.10;;;7.30;58.10;;;;;;5095991;28;20196;-78
2021/03/21 10:37:50;;;;;;;26.00;24.35;;;7.40;59.20;;;;;;5095691;28;20619;-78
2021/03/21 10:40:42;;;;;;;26.33;24.63;;;7.70;58.50;;;;;;5095860;28;20700;-77
2021/03/21 10:43:12;;;;;;;27.63;25.92;;;7.70;59.10;;;;;;5094390;28;20246;-77
2021/03/21 10:45:50;;;;;;;26.63;24.85;;;7.10;61.40;;;;;;5095247;28;20660;-77
2021/03/21 10:48:48;;;;;;;26.33;24.65;;;6.80;63.40;;;;;;5095416;28;20286;-78
2021/03/21 10:51:15;;;;;;;27.30;25.60;;;6.80;66.00;;;;;;5095234;28;20215;-77
2021/03/21 10:54:02;;;;;;;24.75;23.25;;;6.90;66.30;;;;;;5095444;28;20199;-77
2021/03/21 10:56:31;;;;;;;26.02;24.38;;;6.80;67.20;;;;;;5095041;28;20195;-78
2021/03/21 10:59:21;;;;;;;25.02;23.52;;;6.60;68.40;;;;;;5094817;28;20215;-77
2021/03/21 11:01:48;;;;;;;26.38;24.73;;;6.20;70.00;;;;;;5095514;28;20562;-78
2021/03/21 11:04:33;;;;;;;29.52;27.40;;;6.20;70.50;;;;;;5095199;28;20278;-77
2021/03/21 11:07:04;;;;;;;26.65;24.98;;;6.20;70.40;;;;;;5094862;28;20195;-77
2021/03/21 11:09:32;;;;;;;27.60;25.73;;;6.30;70.30;;;;;;5095083;28;20582;-77
2021/03/21 11:12:02;;;;;;;27.35;25.45;;;6.50;70.00;;;;;;5095110;28;20310;-78
2021/03/21 11:14:32;;;;;;;29.42;27.42;;;6.70;69.30;;;;;;5095134;28;20235;-77
2021/03/21 11:17:02;;;;;;;27.70;25.70;;;6.90;67.80;;;;;;5094538;28;20540;-78
2021/03/21 11:19:30;;;;;;;29.92;27.85;;;6.90;67.40;;;;;;5094646;28;20226;-77
2021/03/21 11:21:58;;;;;;;28.30;26.30;;;7.10;67.70;;;;;;5094672;28;20517;-78
2021/03/21 11:24:35;;;;;;;27.77;25.95;;;7.40;71.60;;;;;;5095045;28;20274;-78
2021/03/21 11:27:04;;;;;;;28.80;27.00;;;7.70;66.70;;;;;;5094502;28;20218;-77
2021/03/21 11:29:35;;;;;;;29.30;27.23;;;7.80;64.60;;;;;;5094504;28;20215;-77
2021/03/21 11:32:14;;;;;;;30.63;28.25;;;7.90;64.00;;;;;;5094402;28;20305;-77
2021/03/21 11:34:43;;;;;;;29.00;26.65;;;8.10;63.00;;;;;;5094471;28;20218;-77
2021/03/21 11:37:13;;;;;;;27.58;25.67;;;7.90;60.60;;;;;;5094358;28;20210;-77
2021/03/21 11:39:41;;;;;;;30.92;29.00;;;7.80;61.10;;;;;;5094332;28;20222;-77
2021/03/21 11:42:19;;;;;;;27.80;26.08;;;7.70;60.80;;;;;;5094293;28;20203;-77
2021/03/21 11:44:48;;;;;;;29.20;27.30;;;7.50;61.20;;;;;;5094353;28;20209;-77
2021/03/21 11:47:28;;;;;;;29.08;26.95;;;7.50;60.90;;;;;;5093946;28;20232;-78
2021/03/21 11:49:56;;;;;;;28.25;26.13;;;7.60;61.20;;;;;;5094197;28;20218;-77
2021/03/21 11:52:24;;;;;;;28.02;26.05;;;7.70;60.50;;;;;;5093893;28;20294;-77
2021/03/21 11:54:50;;;;;;;28.60;26.83;;;7.80;60.50;;;;;;5093842;28;20192;-77
2021/03/21 11:57:44;;;;;;;29.55;27.38;;;7.80;61.10;;;;;;5094043;28;20209;-77
2021/03/21 12:00:21;;;;;;;27.58;25.85;;;7.80;60.20;;;;;;5094058;28;20223;-77
2021/03/21 12:02:57;;;;;;;28.02;26.23;;;7.80;60.70;;;;;;5093919;28;20209;-77
2021/03/21 12:05:28;;;;;;;28.23;26.10;;;7.80;60.60;;;;;;5094068;28;20199;-77
2021/03/21 12:08:07;;;;;;;28.55;26.63;;;7.80;61.10;;;;;;5093868;28;20565;-77
2021/03/21 12:10:36;;;;;;;27.75;26.05;;;7.80;63.40;;;;;;5093780;28;20223;-77
2021/03/21 12:13:24;;;;;;;28.38;26.48;;;7.80;63.10;;;;;;5093661;28;20195;-77
2021/03/21 12:15:51;;;;;;;26.33;24.70;;;8.00;64.90;;;;;;5093619;28;20232;-77
2021/03/21 12:18:21;;;;;;;28.40;26.63;;;8.10;61.60;;;;;;5093556;28;20206;-77
2021/03/21 12:20:49;;;;;;;31.95;29.25;;;8.10;60.70;;;;;;5093442;28;20198;-77
2021/03/21 12:23:34;;;;;;;31.15;29.25;;;8.10;60.70;;;;;;5093465;28;20201;-77
2021/03/21 12:26:16;;;;;;;27.52;25.67;;;8.10;61.20;;;;;;5093222;28;20657;-77
2021/03/21 12:28:57;;;;;;;26.75;25.05;;;8.10;61.20;;;;;;5093495;28;20219;-77
2021/03/21 12:31:33;;;;;;;27.35;25.50;;;8.10;62.50;;;;;;5093253;28;20223;-77
2021/03/21 12:34:21;;;;;;;26.75;25.20;;;7.90;63.10;;;;;;5093350;28;20205;-77
2021/03/21 12:37:00;;;;;;;26.02;24.40;;;8.00;63.50;;;;;;5093240;28;20565;-77
2021/03/21 12:39:29;;;;;;;29.27;27.38;;;8.20;63.80;;;;;;5093230;28;20637;-77
2021/03/21 12:41:55;;;;;;;25.65;24.15;;;7.80;65.40;;;;;;5093210;28;20195;-77
2021/03/21 12:44:28;;;;;;;31.63;29.83;;;7.80;65.70;;;;;;5092999;28;20217;-77
2021/03/21 12:46:59;;;;;;;28.60;26.80;;;7.80;66.30;;;;;;5092885;28;20241;-77
2021/03/21 12:49:42;;;;;;;29.10;27.58;;;7.80;66.80;;;;;;5092796;28;20715;-77
2021/03/21 12:52:11;;;;;;;24.23;22.92;;;7.90;67.50;;;;;;5092899;28;20235;-77
2021/03/21 12:54:39;;;;;;;25.33;23.88;;;7.90;68.30;;;;;;5092638;28;20290;-77
2021/03/21 12:57:11;;;;;;;24.13;22.83;;;8.00;68.30;;;;;;5092624;28;20195;-77
2021/03/21 12:59:37;;;;;;;27.95;26.45;;;8.30;68.20;;;;;;5092666;28;20225;-77
2021/03/21 13:02:04;;;;;;;24.75;23.20;;;8.60;67.50;;;;;;5092927;28;20282;-78
2021/03/21 13:04:32;;;;;;;25.67;24.17;;;8.80;67.00;;;;;;5092546;28;20244;-77
2021/03/21 13:06:58;;;;;;;24.67;23.27;;;8.80;67.80;;;;;;5092578;28;20234;-77
2021/03/21 13:09:24;;;;;;;26.10;24.80;;;8.80;66.90;;;;;;5093043;28;20215;-77
2021/03/21 13:11:51;;;;;;;25.13;23.73;;;9.00;66.50;;;;;;5092746;28;20215;-77
2021/03/21 13:14:17;;;;;;;25.40;24.00;;;9.10;66.40;;;;;;5092799;28;20687;-77
2021/03/21 13:16:43;;;;;;;25.35;23.85;;;9.10;66.20;;;;;;5092647;28;20209;-77
2021/03/21 13:19:10;;;;;;;25.33;23.92;;;8.90;66.70;;;;;;5092646;28;20219;-77
2021/03/21 13:21:37;;;;;;;27.73;26.10;;;8.80;67.80;;;;;;5092720;28;20192;-77